Time;durP1;ratioP1;P1;durP2;ratioP2;P2;SDS_P1;SDS_P2;PMS_P1;PMS_P2;Temp;Humidity;BMP_temperature;BMP_pressure;BME280_temperature;BME280_humidity;BME280_pressure;Samples;Min_cycle;Max_cycle;Signal;HPM_P1;HPM_P2
2021/04/29 00:00:46;;;;;;;1.90;1.10;;;16.00;48.20;;;;;;4932702;29;20193;-79
2021/04/29 00:03:12;;;;;;;1.50;1.00;;;16.00;47.70;;;;;;4931554;28;20200;-79
2021/04/29 00:05:38;;;;;;;2.33;1.40;;;16.00;47.90;;;;;;4932531;28;20174;-78
2021/04/29 00:08:04;;;;;;;2.27;1.00;;;15.90;49.20;;;;;;4931213;28;20660;-79
2021/04/29 00:10:32;;;;;;;2.15;0.93;;;15.90;48.00;;;;;;4926145;28;20186;-79
2021/04/29 00:12:58;;;;;;;2.10;1.10;;;15.90;48.00;;;;;;4921443;28;20208;-79
2021/04/29 00:15:25;;;;;;;4.03;1.10;;;15.90;48.40;;;;;;4925938;28;20530;-79
2021/04/29 00:17:51;;;;;;;2.63;0.90;;;15.90;48.90;;;;;;4932110;29;20176;-79
2021/04/29 00:20:20;;;;;;;3.47;1.03;;;15.80;47.90;;;;;;4937430;29;20169;-79
2021/04/29 00:22:46;;;;;;;2.13;1.00;;;15.80;48.20;;;;;;4931169;29;20772;-79
2021/04/29 00:25:13;;;;;;;2.35;1.00;;;15.80;48.20;;;;;;4915382;29;20311;-79
2021/04/29 00:27:39;;;;;;;1.95;1.00;;;15.70;49.00;;;;;;4930825;29;20661;-79
2021/04/29 00:30:07;;;;;;;2.17;1.30;;;15.70;49.00;;;;;;4899723;29;20177;-79
2021/04/29 00:32:33;;;;;;;5.55;2.05;;;15.60;48.30;;;;;;4915384;29;20219;-79
2021/04/29 00:34:59;;;;;;;1.50;1.13;;;15.60;48.80;;;;;;4931568;29;20173;-79
2021/04/29 00:37:25;;;;;;;1.70;1.10;;;15.60;49.00;;;;;;4930678;29;20184;-79
2021/04/29 00:39:50;;;;;;;2.70;1.10;;;15.60;48.20;;;;;;4930910;29;20181;-79
2021/04/29 00:42:16;;;;;;;1.80;1.20;;;15.60;48.60;;;;;;4899295;29;20240;-80
2021/04/29 00:44:42;;;;;;;1.60;1.03;;;15.60;48.40;;;;;;4930799;29;20223;-79
2021/04/29 00:47:07;;;;;;;1.90;1.07;;;15.50;48.90;;;;;;4931609;29;20174;-80
2021/04/29 00:49:35;;;;;;;1.83;1.00;;;15.50;49.40;;;;;;4932010;29;20181;-79
2021/04/29 00:52:01;;;;;;;1.70;0.98;;;15.50;48.80;;;;;;4930574;29;20217;-79
2021/04/29 00:54:27;;;;;;;1.80;0.93;;;15.50;49.00;;;;;;4931955;28;20169;-79
2021/04/29 00:56:52;;;;;;;1.60;1.00;;;15.40;49.80;;;;;;4936825;29;20223;-79
2021/04/29 00:59:18;;;;;;;1.40;1.00;;;15.40;49.20;;;;;;4932223;28;20579;-79
2021/04/29 01:01:52;;;;;;;3.57;1.53;;;15.40;49.40;;;;;;4931860;28;20327;-79
2021/04/29 01:04:25;;;;;;;1.50;0.98;;;15.40;49.30;;;;;;4915078;29;20569;-79
2021/04/29 01:07:01;;;;;;;1.50;0.93;;;15.40;49.40;;;;;;4914872;29;20173;-79
2021/04/29 01:09:40;;;;;;;2.63;1.40;;;15.40;49.30;;;;;;4964807;28;20663;-79
2021/04/29 01:12:12;;;;;;;2.35;1.17;;;15.50;49.20;;;;;;4914792;29;20230;-79
2021/04/29 01:14:39;;;;;;;2.30;1.20;;;15.50;48.90;;;;;;4931843;29;20231;-79
2021/04/29 01:17:06;;;;;;;1.55;0.90;;;15.50;48.80;;;;;;4931553;29;20578;-79
2021/04/29 01:20:05;;;;;;;2.92;1.10;;;15.50;48.60;;;;;;4915643;29;20188;-80
2021/04/29 01:22:39;;;;;;;2.47;0.90;;;15.60;49.00;;;;;;4932557;28;20216;-80
2021/04/29 01:25:19;;;;;;;2.20;1.10;;;15.60;48.60;;;;;;4931623;29;20503;-79
2021/04/29 01:27:45;;;;;;;3.17;0.95;;;15.60;48.60;;;;;;4931388;29;20513;-79
2021/04/29 01:30:13;;;;;;;2.25;1.00;;;15.60;48.50;;;;;;4914166;29;20208;-79
2021/04/29 01:32:40;;;;;;;2.90;1.00;;;15.70;48.70;;;;;;4883476;29;20710;-80
2021/04/29 01:35:08;;;;;;;1.70;1.08;;;15.70;48.60;;;;;;4888161;29;20189;-79
2021/04/29 01:37:36;;;;;;;1.80;1.15;;;15.70;48.70;;;;;;4931235;29;20169;-79
2021/04/29 01:40:04;;;;;;;3.72;1.00;;;15.80;48.80;;;;;;4914490;29;20177;-79
2021/04/29 01:42:34;;;;;;;1.55;0.90;;;15.80;48.70;;;;;;4898587;29;20239;-79
2021/04/29 01:45:03;;;;;;;1.50;1.10;;;15.80;48.80;;;;;;4914216;29;20178;-80
2021/04/29 01:47:31;;;;;;;2.45;1.10;;;15.90;48.80;;;;;;4914044;29;20184;-79
2021/04/29 01:49:58;;;;;;;2.25;1.42;;;15.80;48.70;;;;;;4914158;29;20620;-80
2021/04/29 01:52:23;;;;;;;2.22;1.38;;;15.90;48.70;;;;;;4914289;29;20559;-80
2021/04/29 01:54:49;;;;;;;3.00;1.80;;;15.90;48.70;;;;;;4914310;28;20185;-80
2021/04/29 01:57:18;;;;;;;6.45;1.67;;;15.90;48.80;;;;;;4913752;28;20272;-80
2021/04/29 01:59:44;;;;;;;5.18;2.60;;;15.90;49.00;;;;;;4931187;29;20590;-80
2021/04/29 02:02:09;;;;;;;1.90;1.17;;;16.00;48.90;;;;;;4931190;29;20208;-80
2021/04/29 02:04:35;;;;;;;1.83;1.27;;;15.90;48.80;;;;;;4916948;29;20173;-80
2021/04/29 02:07:01;;;;;;;3.20;2.90;;;15.90;48.90;;;;;;4934017;29;20569;-80
2021/04/29 02:09:27;;;;;;;1.70;1.20;;;15.90;49.10;;;;;;4934612;28;20173;-80
2021/04/29 02:11:57;;;;;;;2.23;1.20;;;16.00;49.10;;;;;;4939527;29;20216;-80
2021/04/29 02:14:44;;;;;;;2.58;1.48;;;16.00;49.20;;;;;;4917590;29;20183;-80
2021/04/29 02:17:34;;;;;;;2.60;1.55;;;15.90;49.70;;;;;;4933976;29;20201;-79
2021/04/29 02:20:05;;;;;;;3.05;1.23;;;16.00;49.40;;;;;;4917078;29;20185;-79
2021/04/29 02:22:33;;;;;;;2.47;1.63;;;16.00;49.50;;;;;;4934610;29;20207;-80
2021/04/29 02:25:01;;;;;;;3.78;1.50;;;16.00;49.40;;;;;;4934267;29;20260;-79
2021/04/29 02:27:27;;;;;;;2.50;1.70;;;15.90;49.50;;;;;;4933832;29;20541;-80
2021/04/29 02:29:53;;;;;;;3.50;1.80;;;16.00;49.80;;;;;;4917307;28;20169;-81
2021/04/29 02:32:20;;;;;;;3.50;2.17;;;15.90;49.70;;;;;;4933945;29;20592;-81
2021/04/29 02:34:46;;;;;;;3.15;2.30;;;15.90;49.70;;;;;;4934243;29;20531;-80
2021/04/29 02:37:13;;;;;;;3.97;2.28;;;15.90;49.90;;;;;;4933681;29;20177;-81
2021/04/29 02:39:39;;;;;;;3.25;2.95;;;15.90;50.00;;;;;;4934026;28;20224;-80
2021/04/29 02:42:06;;;;;;;15.43;2.17;;;15.90;50.70;;;;;;4933801;29;20204;-80
2021/04/29 02:44:32;;;;;;;2.20;1.65;;;15.90;50.00;;;;;;4934240;29;20510;-81
2021/04/29 02:46:58;;;;;;;2.85;2.13;;;15.90;50.20;;;;;;4934030;29;20238;-81
2021/04/29 02:49:25;;;;;;;3.90;2.22;;;15.90;50.70;;;;;;4938448;29;20173;-80
2021/04/29 02:51:51;;;;;;;2.30;1.70;;;15.90;50.40;;;;;;4933755;29;20671;-80
2021/04/29 02:54:18;;;;;;;2.90;2.00;;;15.90;50.50;;;;;;4934031;29;20586;-80
2021/04/29 02:56:43;;;;;;;6.85;1.95;;;15.80;50.70;;;;;;4933633;29;20181;-80
2021/04/29 02:59:11;;;;;;;2.97;1.67;;;15.80;50.60;;;;;;4917150;28;20595;-80
2021/04/29 03:01:37;;;;;;;2.58;1.50;;;15.80;50.60;;;;;;4916601;28;20270;-79
2021/04/29 03:04:03;;;;;;;2.77;1.60;;;15.80;50.80;;;;;;4916692;29;20165;-79
2021/04/29 03:06:30;;;;;;;2.13;1.92;;;15.80;51.10;;;;;;4916513;29;20803;-80
2021/04/29 03:08:56;;;;;;;1.80;1.48;;;15.80;51.20;;;;;;4933720;29;20224;-80
2021/04/29 03:11:22;;;;;;;3.00;1.87;;;15.80;51.00;;;;;;4916569;28;20713;-79
2021/04/29 03:13:47;;;;;;;2.17;1.70;;;15.80;51.10;;;;;;4933731;29;20609;-80
2021/04/29 03:16:13;;;;;;;2.27;1.70;;;15.70;51.60;;;;;;4932436;29;21112;-80
2021/04/29 03:18:39;;;;;;;2.60;2.37;;;15.70;51.30;;;;;;4933283;28;20188;-80
2021/04/29 03:21:05;;;;;;;2.20;1.90;;;15.70;51.40;;;;;;4933433;28;20281;-80
2021/04/29 03:23:31;;;;;;;2.10;1.80;;;15.70;51.80;;;;;;4917008;28;20177;-80
2021/04/29 03:25:57;;;;;;;3.00;2.10;;;15.70;51.60;;;;;;4939553;28;20176;-79
2021/04/29 03:28:23;;;;;;;3.07;2.00;;;15.60;52.30;;;;;;4933230;28;20170;-80
2021/04/29 03:30:49;;;;;;;2.63;2.00;;;15.60;51.90;;;;;;4933341;29;20192;-81
2021/04/29 03:33:14;;;;;;;3.57;2.60;;;15.60;51.80;;;;;;4933610;28;20642;-81
2021/04/29 03:35:40;;;;;;;3.30;2.90;;;15.60;52.10;;;;;;4916719;29;20244;-80
2021/04/29 03:38:07;;;;;;;3.73;3.00;;;15.60;52.10;;;;;;4933551;29;20581;-80
2021/04/29 03:40:33;;;;;;;3.13;2.70;;;15.60;52.20;;;;;;4916391;29;20195;-80
2021/04/29 03:42:59;;;;;;;3.95;2.42;;;15.50;52.20;;;;;;4933649;28;20197;-80
2021/04/29 03:45:25;;;;;;;2.57;2.13;;;15.60;52.40;;;;;;4933817;29;20165;-80
2021/04/29 03:47:51;;;;;;;3.30;3.00;;;15.50;52.40;;;;;;4934754;29;20193;-80
2021/04/29 03:50:17;;;;;;;4.40;2.72;;;15.50;52.50;;;;;;4934255;29;20712;-80
2021/04/29 03:52:43;;;;;;;6.50;3.50;;;15.50;52.60;;;;;;4917696;29;20185;-80
2021/04/29 03:55:09;;;;;;;3.30;3.00;;;15.50;52.90;;;;;;4921370;29;20177;-79
2021/04/29 03:57:35;;;;;;;4.03;3.30;;;15.50;52.80;;;;;;4941610;29;20280;-79
2021/04/29 04:00:01;;;;;;;3.60;3.10;;;15.50;52.90;;;;;;4942482;28;21216;-78
2021/04/29 04:02:26;;;;;;;3.10;2.80;;;15.40;52.80;;;;;;4945069;28;20628;-79
2021/04/29 04:04:52;;;;;;;5.80;3.87;;;15.40;53.00;;;;;;4942088;28;20184;-79
2021/04/29 04:07:18;;;;;;;4.43;3.47;;;15.40;53.10;;;;;;4941744;29;20513;-79
2021/04/29 04:09:44;;;;;;;3.50;3.20;;;15.40;53.30;;;;;;4936387;28;20176;-79
2021/04/29 04:12:10;;;;;;;4.20;3.80;;;15.40;53.30;;;;;;4916207;28;20208;-78
2021/04/29 04:14:36;;;;;;;4.20;3.70;;;15.30;53.50;;;;;;4933541;29;20756;-78
2021/04/29 04:17:01;;;;;;;5.27;4.03;;;15.40;53.70;;;;;;4933361;29;20175;-78
2021/04/29 04:19:27;;;;;;;9.03;4.50;;;15.30;53.70;;;;;;4933531;28;20603;-78
2021/04/29 04:21:53;;;;;;;3.97;3.53;;;15.30;53.70;;;;;;4933718;28;20293;-79
2021/04/29 04:24:19;;;;;;;5.83;4.90;;;15.30;53.80;;;;;;4916814;29;20711;-80
2021/04/29 04:26:45;;;;;;;4.57;3.72;;;15.30;54.10;;;;;;4933231;28;20169;-79
2021/04/29 04:29:11;;;;;;;4.80;4.03;;;15.30;54.40;;;;;;4916453;29;20199;-79
2021/04/29 04:31:36;;;;;;;5.80;4.73;;;15.30;54.00;;;;;;4933347;29;20613;-79
2021/04/29 04:34:02;;;;;;;5.43;4.93;;;15.30;54.30;;;;;;4916180;29;20572;-79
2021/04/29 04:36:28;;;;;;;6.78;4.65;;;15.30;54.50;;;;;;4916530;29;20208;-80
2021/04/29 04:38:54;;;;;;;5.63;5.13;;;15.30;54.70;;;;;;4923607;28;20177;-79
2021/04/29 04:41:20;;;;;;;6.13;4.57;;;15.30;54.80;;;;;;4943576;28;20653;-79
2021/04/29 04:43:45;;;;;;;5.57;5.07;;;15.20;54.80;;;;;;4926895;28;20252;-79
2021/04/29 04:46:11;;;;;;;6.70;5.13;;;15.20;55.10;;;;;;4945412;28;20173;-80
2021/04/29 04:48:37;;;;;;;6.13;5.53;;;15.20;54.90;;;;;;4943209;29;20173;-79
2021/04/29 04:51:03;;;;;;;6.13;5.53;;;15.20;55.20;;;;;;4943104;28;20226;-80
2021/04/29 04:53:29;;;;;;;6.00;5.00;;;15.20;55.50;;;;;;4943362;29;20184;-80
2021/04/29 04:55:54;;;;;;;6.97;6.27;;;15.20;55.50;;;;;;4926510;29;20157;-80
2021/04/29 04:58:20;;;;;;;6.10;5.50;;;15.20;55.70;;;;;;4937008;28;20516;-80
2021/04/29 05:00:50;;;;;;;7.83;6.17;;;15.10;55.80;;;;;;4934569;28;20201;-79
2021/04/29 05:03:17;;;;;;;7.25;5.80;;;15.10;55.90;;;;;;4917017;29;21006;-80
2021/04/29 05:05:43;;;;;;;7.72;6.88;;;15.10;56.00;;;;;;4934763;29;20620;-79
2021/04/29 05:08:09;;;;;;;9.25;7.50;;;15.10;56.30;;;;;;4917331;29;20179;-79
2021/04/29 05:10:36;;;;;;;7.85;6.90;;;15.00;56.50;;;;;;4933882;28;20189;-79
2021/04/29 05:13:04;;;;;;;9.05;7.93;;;14.90;56.30;;;;;;4933318;29;20545;-80
2021/04/29 05:15:31;;;;;;;9.27;7.50;;;14.90;56.70;;;;;;4938476;29;20161;-81
2021/04/29 05:17:57;;;;;;;7.30;6.55;;;14.90;57.10;;;;;;4937227;29;20177;-79
2021/04/29 05:20:23;;;;;;;10.77;8.20;;;14.90;57.70;;;;;;4933523;29;20513;-77
2021/04/29 05:22:50;;;;;;;9.30;7.47;;;14.90;57.30;;;;;;4933462;29;20287;-76
2021/04/29 05:25:19;;;;;;;7.72;6.95;;;14.90;57.40;;;;;;4932899;29;20260;-75
2021/04/29 05:27:45;;;;;;;11.10;8.00;;;14.90;57.60;;;;;;4932453;29;20753;-75
2021/04/29 05:30:11;;;;;;;10.83;8.30;;;14.90;57.80;;;;;;4929186;28;20174;-78
2021/04/29 05:32:37;;;;;;;7.97;7.18;;;14.90;57.90;;;;;;4923461;29;20593;-76
2021/04/29 05:35:04;;;;;;;8.67;7.07;;;14.90;58.20;;;;;;4943553;28;20595;-76
2021/04/29 05:37:30;;;;;;;7.65;6.85;;;15.00;58.90;;;;;;4912768;29;20625;-76
2021/04/29 05:39:56;;;;;;;9.70;7.70;;;15.00;58.80;;;;;;4931950;28;20201;-76
2021/04/29 05:42:22;;;;;;;7.60;6.63;;;15.10;58.90;;;;;;4935163;29;20244;-75
2021/04/29 05:44:48;;;;;;;8.20;7.40;;;15.10;59.10;;;;;;4935106;28;20196;-75
2021/04/29 05:47:14;;;;;;;7.82;6.97;;;15.20;59.10;;;;;;4934827;29;20188;-75
2021/04/29 05:49:43;;;;;;;8.17;6.87;;;15.20;59.30;;;;;;4934810;29;20657;-76
2021/04/29 05:52:12;;;;;;;7.60;6.90;;;15.20;60.30;;;;;;4934148;29;20216;-77
2021/04/29 05:54:38;;;;;;;7.30;6.60;;;15.30;59.70;;;;;;4987113;28;20501;-75
2021/04/29 05:57:06;;;;;;;8.23;7.28;;;15.40;59.80;;;;;;5014769;28;20691;-76
2021/04/29 05:59:32;;;;;;;7.97;7.18;;;15.40;60.00;;;;;;4998286;28;20261;-77
2021/04/29 06:02:00;;;;;;;8.73;7.93;;;15.40;59.90;;;;;;5022806;28;20241;-78
2021/04/29 06:04:29;;;;;;;8.25;7.45;;;15.50;60.30;;;;;;4981560;28;20586;-77
2021/04/29 06:06:55;;;;;;;6.07;5.47;;;15.50;60.30;;;;;;4923231;29;20169;-78
2021/04/29 06:09:21;;;;;;;8.20;7.05;;;15.60;60.30;;;;;;4995301;28;20170;-78
2021/04/29 06:11:47;;;;;;;9.77;6.65;;;15.60;60.70;;;;;;4922711;28;20658;-78
2021/04/29 06:14:13;;;;;;;8.73;7.83;;;15.70;60.50;;;;;;4919261;28;20209;-78
2021/04/29 06:16:40;;;;;;;9.80;8.80;;;15.80;61.10;;;;;;4984042;28;20170;-78
2021/04/29 06:19:06;;;;;;;9.60;8.40;;;15.90;61.70;;;;;;4917769;28;20174;-78
2021/04/29 06:21:33;;;;;;;9.05;8.13;;;16.20;62.30;;;;;;4917358;28;20205;-77
2021/04/29 06:23:59;;;;;;;11.85;9.40;;;16.40;61.30;;;;;;4922759;28;20174;-78
2021/04/29 06:26:25;;;;;;;11.98;8.27;;;16.50;61.00;;;;;;4920757;28;20178;-78
2021/04/29 06:28:50;;;;;;;8.40;7.50;;;16.70;61.20;;;;;;4986245;28;20174;-78
2021/04/29 06:31:17;;;;;;;8.33;7.53;;;17.00;62.20;;;;;;4921594;28;20268;-78
2021/04/29 06:33:43;;;;;;;8.70;7.90;;;17.40;62.40;;;;;;4916483;28;20173;-78
2021/04/29 06:36:08;;;;;;;10.37;8.27;;;18.20;63.40;;;;;;4982517;28;20570;-78
2021/04/29 06:38:36;;;;;;;8.70;7.37;;;19.00;63.50;;;;;;4969908;28;20172;-78
2021/04/29 06:41:02;;;;;;;9.13;7.87;;;19.90;64.40;;;;;;4953336;28;20206;-79
2021/04/29 06:43:28;;;;;;;7.97;7.27;;;20.90;62.80;;;;;;4954158;28;20573;-79
2021/04/29 06:45:54;;;;;;;8.10;7.40;;;21.70;61.40;;;;;;4938287;28;20608;-77
2021/04/29 06:48:20;;;;;;;10.00;9.07;;;22.40;59.50;;;;;;4939748;28;21017;-78
2021/04/29 06:50:46;;;;;;;8.17;7.20;;;22.90;57.90;;;;;;4939975;29;20662;-77
2021/04/29 06:53:12;;;;;;;9.43;8.63;;;23.30;57.10;;;;;;4937924;29;20571;-78
2021/04/29 06:55:38;;;;;;;10.30;9.30;;;23.60;56.10;;;;;;4921901;29;20581;-76
2021/04/29 06:58:04;;;;;;;9.20;8.40;;;23.80;55.50;;;;;;4921324;28;20197;-76
2021/04/29 07:00:30;;;;;;;9.27;8.47;;;24.20;55.30;;;;;;4916978;28;20597;-76
2021/04/29 07:02:56;;;;;;;9.97;9.10;;;24.60;54.90;;;;;;4901053;28;20220;-76
2021/04/29 07:05:23;;;;;;;12.23;11.13;;;25.20;54.80;;;;;;4900807;28;20573;-76
2021/04/29 07:07:52;;;;;;;10.97;10.07;;;25.70;53.90;;;;;;4903662;28;20574;-76
2021/04/29 07:10:19;;;;;;;11.43;10.23;;;26.10;52.60;;;;;;4916390;28;20667;-76
2021/04/29 07:12:44;;;;;;;11.87;10.73;;;26.40;52.30;;;;;;4915759;28;20904;-76
2021/04/29 07:15:14;;;;;;;12.93;11.73;;;26.90;51.90;;;;;;4915797;28;20585;-76
2021/04/29 07:17:39;;;;;;;14.30;13.07;;;27.20;51.10;;;;;;4914909;29;20178;-76
2021/04/29 07:20:06;;;;;;;14.30;12.90;;;27.40;49.90;;;;;;4914445;28;21350;-76
2021/04/29 07:22:32;;;;;;;14.43;13.10;;;27.40;49.20;;;;;;4914487;29;20528;-76
2021/04/29 07:24:57;;;;;;;14.77;13.57;;;27.20;48.00;;;;;;4914932;28;20570;-77
2021/04/29 07:27:23;;;;;;;13.13;12.03;;;27.20;48.00;;;;;;4896443;28;20584;-78
2021/04/29 07:29:49;;;;;;;14.07;12.90;;;27.40;48.20;;;;;;4923997;28;21219;-77
2021/04/29 07:32:15;;;;;;;14.93;13.70;;;27.60;48.20;;;;;;4921465;29;20197;-78
2021/04/29 07:34:41;;;;;;;14.03;12.70;;;27.90;47.70;;;;;;4913967;28;21042;-77
2021/04/29 07:37:07;;;;;;;15.80;13.43;;;28.30;47.30;;;;;;4913889;28;20544;-79
2021/04/29 07:39:33;;;;;;;14.10;12.90;;;28.60;47.10;;;;;;4923538;28;20187;-79
2021/04/29 07:41:59;;;;;;;19.03;16.27;;;28.90;46.50;;;;;;4906395;28;20209;-78
2021/04/29 07:44:25;;;;;;;19.93;15.23;;;29.20;45.60;;;;;;4919367;28;20562;-78
2021/04/29 07:46:50;;;;;;;16.07;14.57;;;29.40;45.40;;;;;;4913814;28;20560;-79
2021/04/29 07:49:16;;;;;;;15.10;13.70;;;29.60;44.60;;;;;;4914031;28;20580;-78
2021/04/29 07:51:42;;;;;;;16.97;14.97;;;29.50;43.90;;;;;;4907793;29;20658;-78
2021/04/29 07:54:08;;;;;;;14.77;13.00;;;29.30;43.00;;;;;;4979755;28;20960;-78
2021/04/29 07:56:34;;;;;;;15.17;13.67;;;29.00;42.40;;;;;;5012621;28;21300;-81
2021/04/29 07:59:00;;;;;;;15.00;13.70;;;28.60;41.80;;;;;;5013110;28;20577;-79
2021/04/29 08:01:26;;;;;;;15.50;13.90;;;28.10;41.60;;;;;;5010934;28;20676;-78
2021/04/29 08:03:52;;;;;;;14.33;12.90;;;27.90;42.10;;;;;;5011551;28;20969;-78
2021/04/29 08:06:18;;;;;;;13.77;12.13;;;27.80;42.30;;;;;;5012663;28;20178;-79
2021/04/29 08:08:43;;;;;;;17.20;15.60;;;27.80;42.50;;;;;;5012051;28;20171;-78
2021/04/29 08:11:14;;;;;;;17.60;15.90;;;28.00;43.00;;;;;;5011403;28;20199;-78
2021/04/29 08:13:40;;;;;;;18.40;16.70;;;28.20;42.90;;;;;;5012994;28;20166;-78
2021/04/29 08:16:06;;;;;;;20.43;18.40;;;28.00;41.90;;;;;;5012373;28;20576;-78
2021/04/29 08:18:31;;;;;;;20.50;16.77;;;27.60;41.50;;;;;;5010917;28;20183;-78
2021/04/29 08:20:57;;;;;;;18.60;16.50;;;27.40;41.70;;;;;;5013767;28;20194;-78
2021/04/29 08:23:23;;;;;;;20.83;18.57;;;27.40;41.90;;;;;;5014515;28;20695;-76
2021/04/29 08:25:50;;;;;;;17.73;15.60;;;27.50;42.10;;;;;;5011629;28;20181;-77
2021/04/29 08:28:15;;;;;;;18.57;16.77;;;27.60;42.80;;;;;;5010597;28;20580;-78
2021/04/29 08:30:41;;;;;;;15.87;14.33;;;27.90;42.00;;;;;;5011809;28;20609;-77
2021/04/29 08:33:07;;;;;;;12.60;11.47;;;28.20;41.90;;;;;;4994598;28;20181;-78
2021/04/29 08:35:32;;;;;;;15.73;14.30;;;28.40;41.50;;;;;;4978510;28;20178;-79
2021/04/29 08:37:58;;;;;;;14.77;13.30;;;28.50;40.50;;;;;;4999700;28;20212;-78
2021/04/29 08:40:29;;;;;;;16.13;14.43;;;28.70;40.60;;;;;;4912936;29;20288;-78
2021/04/29 08:42:55;;;;;;;16.83;15.10;;;29.00;40.30;;;;;;4912803;29;20233;-78
2021/04/29 08:45:22;;;;;;;14.90;13.60;;;29.30;39.90;;;;;;4913161;28;20610;-78
2021/04/29 08:47:53;;;;;;;17.60;14.80;;;29.40;39.80;;;;;;4912800;28;20574;-78
2021/04/29 08:50:21;;;;;;;30.63;17.07;;;29.40;38.40;;;;;;4929995;28;20688;-79
2021/04/29 08:52:47;;;;;;;18.30;15.43;;;28.90;37.50;;;;;;5012169;28;20581;-78
2021/04/29 08:55:25;;;;;;;17.00;15.33;;;28.40;37.50;;;;;;5012318;28;20588;-78
2021/04/29 08:57:53;;;;;;;16.70;15.10;;;28.10;38.00;;;;;;4994384;28;20577;-79
2021/04/29 09:00:21;;;;;;;16.20;14.90;;;28.10;38.60;;;;;;5012491;28;20570;-79
2021/04/29 09:02:48;;;;;;;17.93;16.30;;;28.10;38.80;;;;;;5012062;28;20617;-79
2021/04/29 09:05:17;;;;;;;16.77;15.07;;;28.10;38.80;;;;;;4994576;28;20565;-79
2021/04/29 09:07:55;;;;;;;20.53;15.60;;;27.90;38.60;;;;;;4994402;28;20569;-78
2021/04/29 09:10:22;;;;;;;18.90;17.10;;;27.60;38.50;;;;;;4994565;28;20573;-78
2021/04/29 09:15:23;;;;;;;18.60;17.00;;;26.70;38.30;;;;;;4934504;29;20633;-78
2021/04/29 09:18:15;;;;;;;20.70;18.50;;;26.30;38.80;;;;;;4936002;29;20573;-78
2021/04/29 09:20:53;;;;;;;16.97;15.37;;;25.80;38.60;;;;;;4921093;29;20639;-77
2021/04/29 09:23:23;;;;;;;20.30;17.67;;;25.30;39.10;;;;;;4938483;29;20702;-78
2021/04/29 09:25:56;;;;;;;21.30;19.27;;;24.90;39.20;;;;;;4936879;29;21154;-78
2021/04/29 09:28:37;;;;;;;18.90;17.10;;;24.50;39.30;;;;;;4936294;29;20984;-78
2021/04/29 09:31:05;;;;;;;20.73;18.80;;;24.10;39.60;;;;;;4920744;29;20955;-78
2021/04/29 09:33:36;;;;;;;19.60;17.70;;;23.70;39.40;;;;;;4904801;29;20712;-77
2021/04/29 09:36:04;;;;;;;21.10;18.90;;;23.20;39.50;;;;;;4921008;29;20589;-78
2021/04/29 09:38:36;;;;;;;19.53;17.57;;;22.80;39.60;;;;;;4943973;29;20608;-78
2021/04/29 09:41:03;;;;;;;19.77;17.50;;;22.40;39.90;;;;;;4936355;29;20676;-77
2021/04/29 09:43:29;;;;;;;19.97;17.90;;;22.00;40.00;;;;;;4936280;29;20609;-78
2021/04/29 09:45:58;;;;;;;19.80;17.77;;;21.60;40.10;;;;;;4920507;29;20575;-78
2021/04/29 09:48:34;;;;;;;20.30;17.57;;;21.20;40.30;;;;;;4935992;29;20973;-78
2021/04/29 09:51:00;;;;;;;18.87;17.23;;;21.00;41.00;;;;;;4920447;29;20589;-78
2021/04/29 09:53:38;;;;;;;17.33;15.80;;;21.20;42.00;;;;;;4937544;29;20611;-78
2021/04/29 09:56:12;;;;;;;18.57;16.70;;;21.70;43.10;;;;;;4937699;29;20607;-78
2021/04/29 09:58:44;;;;;;;19.67;17.77;;;22.20;43.40;;;;;;4952898;29;20591;-77
2021/04/29 10:01:10;;;;;;;16.70;15.07;;;22.70;43.30;;;;;;4923193;29;20948;-78
2021/04/29 10:03:38;;;;;;;18.90;16.90;;;23.30;43.80;;;;;;4955251;28;20636;-78
2021/04/29 10:06:04;;;;;;;21.03;19.07;;;24.10;44.40;;;;;;4956426;28;20568;-78
2021/04/29 10:08:34;;;;;;;20.10;18.20;;;24.70;43.70;;;;;;4956111;28;20572;-78
2021/04/29 10:11:02;;;;;;;21.73;19.73;;;25.10;43.10;;;;;;4955090;28;20572;-79
2021/04/29 10:13:31;;;;;;;20.30;18.20;;;25.20;42.30;;;;;;4943636;28;20628;-79
2021/04/29 10:15:57;;;;;;;18.67;16.90;;;25.10;41.30;;;;;;4940690;29;20603;-78
2021/04/29 10:18:24;;;;;;;16.40;15.00;;;24.70;40.80;;;;;;4950114;28;20592;-78
2021/04/29 10:20:51;;;;;;;17.50;15.80;;;24.30;40.40;;;;;;4904011;29;20600;-78
2021/04/29 10:23:21;;;;;;;17.10;15.50;;;23.90;40.40;;;;;;4928689;29;20655;-77
2021/04/29 10:25:52;;;;;;;17.90;16.20;;;23.50;40.60;;;;;;4954272;28;20564;-78
2021/04/29 10:28:33;;;;;;;21.80;17.40;;;23.10;40.90;;;;;;4955434;28;20572;-76
2021/04/29 10:31:02;;;;;;;20.00;18.00;;;23.10;42.00;;;;;;4935540;29;21090;-78
2021/04/29 10:33:35;;;;;;;24.97;22.67;;;23.00;42.00;;;;;;4935241;29;21270;-77
2021/04/29 10:36:01;;;;;;;18.67;16.87;;;22.80;41.90;;;;;;4938328;28;20690;-77
2021/04/29 10:38:35;;;;;;;20.80;18.60;;;22.50;41.60;;;;;;4968208;28;20683;-77
2021/04/29 10:41:04;;;;;;;22.60;20.30;;;22.20;41.90;;;;;;4923021;29;20587;-77
2021/04/29 10:43:35;;;;;;;20.33;18.40;;;22.20;43.40;;;;;;4954077;28;21207;-77
2021/04/29 10:46:05;;;;;;;20.57;18.67;;;22.40;43.70;;;;;;4941924;28;20596;-77
2021/04/29 10:48:33;;;;;;;21.17;19.07;;;22.70;44.30;;;;;;4927374;29;20593;-78
2021/04/29 10:51:07;;;;;;;19.23;17.23;;;22.90;44.10;;;;;;4921453;29;20894;-78
2021/04/29 10:53:35;;;;;;;20.97;18.97;;;22.90;43.60;;;;;;4941649;29;20953;-78
2021/04/29 10:56:12;;;;;;;21.60;18.80;;;22.80;43.30;;;;;;4937533;29;21198;-78
2021/04/29 10:58:38;;;;;;;20.90;17.13;;;22.40;44.30;;;;;;4953823;28;20599;-78
2021/04/29 11:01:09;;;;;;;21.50;19.30;;;21.80;43.70;;;;;;4950021;29;20612;-78
2021/04/29 11:03:37;;;;;;;21.57;19.37;;;21.10;44.70;;;;;;4955202;28;20654;-78
2021/04/29 11:06:04;;;;;;;19.23;17.40;;;20.50;45.00;;;;;;4955083;28;20582;-78
2021/04/29 11:08:35;;;;;;;17.97;15.60;;;20.00;45.50;;;;;;4955971;29;20580;-78
2021/04/29 11:11:01;;;;;;;16.23;14.77;;;19.60;46.40;;;;;;4939651;29;20588;-79
2021/04/29 11:13:29;;;;;;;16.17;14.43;;;19.10;46.60;;;;;;4939134;29;21024;-78
2021/04/29 11:15:58;;;;;;;16.13;11.00;;;18.70;47.00;;;;;;4954637;29;20603;-78
2021/04/29 11:18:25;;;;;;;13.27;11.87;;;18.10;46.60;;;;;;4966361;28;20611;-78
2021/04/29 11:20:57;;;;;;;11.67;10.43;;;17.70;46.70;;;;;;4974487;28;20575;-78
2021/04/29 11:23:39;;;;;;;10.83;9.50;;;17.30;47.20;;;;;;4956817;28;20651;-78
2021/04/29 11:26:09;;;;;;;10.63;9.63;;;17.10;48.70;;;;;;4957017;28;20666;-78
2021/04/29 11:28:35;;;;;;;9.15;8.40;;;17.00;48.60;;;;;;4956704;28;20599;-78
2021/04/29 11:31:02;;;;;;;8.85;7.60;;;17.00;49.00;;;;;;4974145;28;20248;-78
2021/04/29 11:33:38;;;;;;;6.55;5.90;;;16.90;49.20;;;;;;4974929;28;20557;-78
2021/04/29 11:36:18;;;;;;;6.30;5.70;;;16.90;49.80;;;;;;4974262;28;20673;-78
2021/04/29 11:38:54;;;;;;;7.77;5.90;;;17.00;50.30;;;;;;4969541;28;20200;-78
2021/04/29 11:41:21;;;;;;;6.00;5.40;;;17.20;50.60;;;;;;4955295;29;20583;-78
2021/04/29 11:44:01;;;;;;;6.53;5.83;;;17.50;51.40;;;;;;4940004;29;20610;-79
2021/04/29 11:46:28;;;;;;;6.70;6.20;;;17.80;52.00;;;;;;4944021;29;20591;-79
2021/04/29 11:48:58;;;;;;;9.83;7.10;;;18.30;52.40;;;;;;4954309;29;21940;-79
2021/04/29 11:51:29;;;;;;;9.37;7.17;;;18.70;52.70;;;;;;4969755;28;21122;-79
2021/04/29 11:54:02;;;;;;;7.20;6.57;;;19.10;52.30;;;;;;4953231;29;20620;-78
2021/04/29 11:56:48;;;;;;;7.00;6.30;;;19.40;51.70;;;;;;4932007;29;20691;-79
2021/04/29 11:59:16;;;;;;;6.30;5.80;;;19.70;51.30;;;;;;4954761;29;20671;-78
2021/04/29 12:01:54;;;;;;;5.60;5.10;;;19.90;51.00;;;;;;4941455;29;20690;-80
2021/04/29 12:04:24;;;;;;;6.53;5.97;;;20.20;51.00;;;;;;4969491;29;20615;-80
2021/04/29 12:06:51;;;;;;;6.20;4.63;;;20.50;50.90;;;;;;4968427;29;20662;-79
2021/04/29 12:09:22;;;;;;;7.70;5.30;;;20.80;50.60;;;;;;4962521;29;20643;-79
2021/04/29 12:11:48;;;;;;;5.73;5.23;;;20.90;50.00;;;;;;4968442;28;20608;-78
2021/04/29 12:14:21;;;;;;;12.50;6.00;;;21.00;49.20;;;;;;4973596;28;20651;-79
2021/04/29 12:16:49;;;;;;;9.00;4.80;;;21.00;48.30;;;;;;4969992;29;20612;-79
2021/04/29 12:19:15;;;;;;;7.70;4.10;;;20.80;47.60;;;;;;4971793;28;20591;-79
2021/04/29 12:21:43;;;;;;;4.50;4.07;;;20.50;47.20;;;;;;4959005;28;20635;-82
2021/04/29 12:24:10;;;;;;;4.90;4.40;;;20.20;46.90;;;;;;4956611;29;20636;-80
2021/04/29 12:26:41;;;;;;;5.63;5.03;;;19.80;46.80;;;;;;4955002;28;20561;-81
2021/04/29 12:29:09;;;;;;;6.20;4.83;;;19.40;46.90;;;;;;4937201;29;20583;-80
2021/04/29 12:31:36;;;;;;;9.20;5.90;;;18.90;46.80;;;;;;4921111;29;20932;-80
2021/04/29 12:34:05;;;;;;;8.33;5.33;;;18.50;46.80;;;;;;4953982;28;20675;-80
2021/04/29 12:36:35;;;;;;;6.47;5.10;;;18.10;47.20;;;;;;4952907;28;20623;-81
2021/04/29 12:39:19;;;;;;;6.82;4.97;;;17.70;47.20;;;;;;4953256;28;20634;-80
2021/04/29 12:41:52;;;;;;;13.48;6.03;;;17.30;47.70;;;;;;4955708;28;20206;-81
2021/04/29 12:44:37;;;;;;;5.85;5.10;;;16.90;47.50;;;;;;4942940;29;20216;-81
2021/04/29 12:47:07;;;;;;;8.82;4.90;;;16.60;48.70;;;;;;4956877;28;20169;-81